createdAt,value
2017-11-23T00:00:26.961Z,45.00
2017-11-23T00:01:29.361Z,44.40
2017-11-23T00:02:30.646Z,44.40
2017-11-23T00:03:32.349Z,44.40
2017-11-23T00:04:33.641Z,44.50
2017-11-23T00:05:35.681Z,44.20
2017-11-23T00:06:37.274Z,44.20
2017-11-23T00:07:38.571Z,44.30
2017-11-23T00:08:40.661Z,44.70
2017-11-23T00:09:41.964Z,44.70
2017-11-23T00:10:43.262Z,44.90
2017-11-23T00:11:44.881Z,44.80
2017-11-23T00:12:46.184Z,45.20
2017-11-23T00:13:47.533Z,45.50
2017-11-23T00:14:49.603Z,45.60
2017-11-23T00:15:50.906Z,45.60
2017-11-23T00:16:52.502Z,45.50
2017-11-23T00:17:53.780Z,45.40
2017-11-23T00:18:55.061Z,45.30
2017-11-23T00:19:56.377Z,45.40
2017-11-23T00:20:58.421Z,45.30
2017-11-23T00:22:00.018Z,45.30
2017-11-23T00:23:01.321Z,46.20
2017-11-23T00:24:03.381Z,46.30
2017-11-23T00:26:11.324Z,46.00
2017-11-23T00:27:12.957Z,46.80
2017-11-23T00:28:14.262Z,46.30
2017-11-23T00:29:15.583Z,46.40
2017-11-23T00:30:16.912Z,46.00
2017-11-23T00:31:18.236Z,46.00
2017-11-23T00:32:19.861Z,45.80
2017-11-23T00:33:21.161Z,45.20
2017-11-23T00:34:23.191Z,45.00
2017-11-23T00:35:24.490Z,45.00
2017-11-23T00:36:25.808Z,44.50
2017-11-23T00:37:27.437Z,44.80
2017-11-23T00:38:29.454Z,45.30
2017-11-23T00:39:30.780Z,45.20
2017-11-23T00:40:32.847Z,45.40
2017-11-23T00:41:34.172Z,45.30
2017-11-23T00:42:35.794Z,45.50
2017-11-23T00:43:37.102Z,45.50
2017-11-23T00:44:39.145Z,45.60
2017-11-23T00:45:41.188Z,45.60
2017-11-23T00:46:42.513Z,45.50
2017-11-23T00:47:44.260Z,45.40
2017-11-23T00:48:45.567Z,45.90
2017-11-23T00:49:46.873Z,45.90
2017-11-23T00:50:48.909Z,45.90
2017-11-23T00:51:50.955Z,45.50
2017-11-23T00:52:52.556Z,45.20
2017-11-23T00:53:53.877Z,44.60
2017-11-23T00:54:55.198Z,44.50
2017-11-23T00:55:57.238Z,44.60
2017-11-23T00:56:58.582Z,44.60
2017-11-23T00:58:00.660Z,44.10
2017-11-23T00:59:01.973Z,44.00
2017-11-23T01:00:04.050Z,44.00
2017-11-23T01:01:05.380Z,43.90
2017-11-23T01:02:06.684Z,44.10
2017-11-23T01:03:08.253Z,44.70
2017-11-23T01:04:10.355Z,43.70
2017-11-23T01:05:11.649Z,43.60
2017-11-23T01:06:13.685Z,42.60
2017-11-23T01:07:15.006Z,42.50
2017-11-23T01:08:16.578Z,42.40
2017-11-23T01:09:18.780Z,42.80
2017-11-23T01:10:20.098Z,42.40
2017-11-23T01:11:21.411Z,42.50
2017-11-23T01:12:22.716Z,42.40
2017-11-23T01:13:24.345Z,42.40
2017-11-23T01:14:25.639Z,42.60
2017-11-23T01:15:27.696Z,42.90
2017-11-23T01:16:29.753Z,43.10
2017-11-23T01:17:31.837Z,43.40
2017-11-23T01:18:33.179Z,43.30
2017-11-23T01:19:34.488Z,43.60
2017-11-23T01:20:36.536Z,44.20
2017-11-23T01:21:38.569Z,44.30
2017-11-23T01:22:39.899Z,44.20
2017-11-23T01:23:41.525Z,44.10
2017-11-23T01:24:42.832Z,44.40
2017-11-23T01:25:44.150Z,44.20
2017-11-23T01:26:46.189Z,44.10
2017-11-23T01:27:47.502Z,44.00
2017-11-23T01:28:49.082Z,44.20
2017-11-23T01:29:51.137Z,43.80
2017-11-23T01:30:53.174Z,43.30
2017-11-23T01:31:54.494Z,43.30
2017-11-23T01:32:55.788Z,43.10
2017-11-23T01:33:57.377Z,43.10
2017-11-23T01:34:58.701Z,43.10
2017-11-23T01:36:00.006Z,43.20
2017-11-23T01:37:06.143Z,43.10
2017-11-23T01:38:08.181Z,43.60
2017-11-23T01:39:10.388Z,43.60
2017-11-23T01:40:11.740Z,44.40
2017-11-23T01:41:13.058Z,43.80
2017-11-23T01:42:14.382Z,43.80
2017-11-23T01:43:15.729Z,43.90
2017-11-23T01:44:17.341Z,44.00
2017-11-23T01:45:18.685Z,43.90
2017-11-23T01:46:20.721Z,44.20
2017-11-23T01:47:22.037Z,44.10
2017-11-23T01:48:23.357Z,44.30
2017-11-23T01:49:25.224Z,44.60
2017-11-23T01:50:26.545Z,44.80
2017-11-23T01:51:27.885Z,44.30
2017-11-23T01:52:29.201Z,44.20
2017-11-23T01:53:30.541Z,44.00
2017-11-23T01:54:32.173Z,43.90
2017-11-23T01:55:34.258Z,43.70
2017-11-23T01:56:35.576Z,43.60
2017-11-23T01:57:36.929Z,43.90
2017-11-23T01:58:38.316Z,43.90
2017-11-23T01:59:40.098Z,43.80
2017-11-23T02:00:42.194Z,44.50
2017-11-23T02:01:43.525Z,44.50
2017-11-23T02:02:44.839Z,44.80
2017-11-23T02:03:46.146Z,45.00
2017-11-23T02:04:47.743Z,45.20
2017-11-23T02:05:49.039Z,45.30
2017-11-23T02:06:51.092Z,45.60
2017-11-23T02:07:53.163Z,46.30
2017-11-23T02:08:54.512Z,46.20
2017-11-23T02:09:56.164Z,46.30
2017-11-23T02:10:57.517Z,47.20
2017-11-23T02:11:58.837Z,46.20
2017-11-23T02:13:00.187Z,45.80
2017-11-23T02:14:01.523Z,45.30
2017-11-23T02:15:03.181Z,45.80
2017-11-23T02:16:05.249Z,45.80
2017-11-23T02:17:06.594Z,45.80
2017-11-23T02:18:07.937Z,46.10
2017-11-23T02:19:09.289Z,45.50
2017-11-23T02:20:10.937Z,45.90
2017-11-23T02:21:12.311Z,46.60
2017-11-23T02:22:13.682Z,46.30
2017-11-23T02:23:15.064Z,45.80
2017-11-23T02:24:17.160Z,46.30
2017-11-23T02:25:18.789Z,45.70
2017-11-23T02:26:20.180Z,45.60
2017-11-23T02:27:21.556Z,46.10
2017-11-23T02:28:23.667Z,45.10
2017-11-23T02:29:25.028Z,45.00
2017-11-23T02:30:27.446Z,44.80
2017-11-23T02:31:28.804Z,44.80
2017-11-23T02:32:30.176Z,44.70
2017-11-23T02:33:32.268Z,45.40
2017-11-23T02:34:33.649Z,44.90
2017-11-23T02:35:35.383Z,45.00
2017-11-23T02:36:36.749Z,45.80
2017-11-23T02:37:38.854Z,45.10
2017-11-23T02:38:40.177Z,44.90
2017-11-23T02:39:41.515Z,44.20
2017-11-23T02:40:43.191Z,44.00
2017-11-23T02:41:44.549Z,44.30
2017-11-23T02:42:46.612Z,44.80
2017-11-23T02:43:47.965Z,44.80
2017-11-23T02:44:49.310Z,44.50
2017-11-23T02:45:50.937Z,44.20
2017-11-23T02:46:52.277Z,44.10
2017-11-23T02:47:53.607Z,44.00
2017-11-23T02:48:55.683Z,44.30
2017-11-23T02:49:57.020Z,44.30
2017-11-23T02:50:58.723Z,45.20
2017-11-23T02:52:00.053Z,45.00
2017-11-23T02:53:01.402Z,45.20
2017-11-23T02:54:03.493Z,45.20
2017-11-23T02:55:04.825Z,45.20
2017-11-23T02:56:06.445Z,45.00
2017-11-23T02:57:07.769Z,44.80
2017-11-23T02:58:09.090Z,44.80
2017-11-23T02:59:10.436Z,44.90
2017-11-23T03:00:11.753Z,44.90
2017-11-23T03:01:14.112Z,45.30
2017-11-23T03:02:16.181Z,45.20
2017-11-23T03:03:17.530Z,45.80
2017-11-23T03:04:18.874Z,45.30
2017-11-23T03:05:20.338Z,45.30
2017-11-23T03:06:22.067Z,44.90
2017-11-23T03:07:23.375Z,44.60
2017-11-23T03:08:25.428Z,44.60
2017-11-23T03:09:27.477Z,44.80
2017-11-23T03:10:29.552Z,44.90
2017-11-23T03:11:31.145Z,44.90
2017-11-23T03:12:32.473Z,45.00
2017-11-23T03:13:33.776Z,45.20
2017-11-23T03:14:35.087Z,45.00
2017-11-23T03:15:37.124Z,46.00
2017-11-23T03:16:38.716Z,45.90
2017-11-23T03:17:40.045Z,46.60
2017-11-23T03:18:41.353Z,46.00
2017-11-23T03:19:42.677Z,46.20
2017-11-23T03:20:43.984Z,46.10
2017-11-23T03:21:45.597Z,46.30
2017-11-23T03:22:47.669Z,46.60
2017-11-23T03:23:48.971Z,46.60
2017-11-23T03:24:51.036Z,46.10
2017-11-23T03:25:53.088Z,45.80
2017-11-23T03:26:55.425Z,46.00
2017-11-23T03:27:56.729Z,46.00
2017-11-23T03:28:58.049Z,45.50
2017-11-23T03:29:59.364Z,45.80
2017-11-23T03:31:01.456Z,45.10
2017-11-23T03:32:03.085Z,45.00
2017-11-23T03:33:04.378Z,44.20
2017-11-23T03:34:05.678Z,43.80
2017-11-23T03:35:06.989Z,43.30
2017-11-23T03:36:09.085Z,43.10
2017-11-23T03:37:10.717Z,43.00
2017-11-23T03:38:12.006Z,42.80
2017-11-23T03:39:13.313Z,42.30
2017-11-23T03:40:14.654Z,43.60
2017-11-23T03:41:15.989Z,43.80
2017-11-23T03:42:17.785Z,44.10
2017-11-23T03:43:19.869Z,43.60
2017-11-23T03:44:21.200Z,43.60
2017-11-23T03:45:22.536Z,43.50
2017-11-23T03:46:23.884Z,43.80
2017-11-23T03:47:25.542Z,44.10
2017-11-23T03:48:26.856Z,43.90
2017-11-23T03:49:28.181Z,44.80
2017-11-23T03:50:29.522Z,44.50
2017-11-23T03:51:30.833Z,44.70
2017-11-23T03:52:32.528Z,44.90
2017-11-23T03:53:33.864Z,45.00
2017-11-23T03:54:35.197Z,45.30
2017-11-23T03:55:36.523Z,45.60
2017-11-23T03:56:37.858Z,45.40
2017-11-23T03:57:40.451Z,45.40
2017-11-23T03:58:41.778Z,45.40
2017-11-23T03:59:43.077Z,46.20
2017-11-23T04:00:44.398Z,45.80
2017-11-23T04:01:45.735Z,45.20
2017-11-23T04:02:47.337Z,45.30
2017-11-23T04:03:48.657Z,45.60
2017-11-23T04:04:50.728Z,45.70
2017-11-23T04:05:52.079Z,45.60
2017-11-23T04:06:53.402Z,45.60
2017-11-23T04:07:54.989Z,45.60
2017-11-23T04:08:56.298Z,45.50
2017-11-23T04:09:57.620Z,45.60
2017-11-23T04:10:58.937Z,45.60
2017-11-23T04:12:01.021Z,45.00
2017-11-23T04:13:02.651Z,45.00
2017-11-23T04:14:04.006Z,44.80
2017-11-23T04:15:05.346Z,44.70
2017-11-23T04:16:06.684Z,44.80
2017-11-23T04:17:08.009Z,44.80
2017-11-23T04:18:09.674Z,44.60
2017-11-23T04:19:11.036Z,44.50
2017-11-23T04:20:12.372Z,44.90
2017-11-23T04:21:13.705Z,45.10
2017-11-23T04:22:15.037Z,45.30
2017-11-23T04:23:16.680Z,45.40
2017-11-23T04:24:18.030Z,45.30
2017-11-23T04:25:19.354Z,44.70
2017-11-23T04:26:20.710Z,44.20
2017-11-23T04:27:22.792Z,43.90
2017-11-23T04:28:24.491Z,43.80
2017-11-23T04:29:25.792Z,43.70
2017-11-23T04:30:27.861Z,43.90
2017-11-23T04:31:29.923Z,44.00
2017-11-23T04:32:31.235Z,43.80
2017-11-23T04:33:33.619Z,44.20
2017-11-23T04:34:35.026Z,44.10
2017-11-23T04:35:36.329Z,44.10
2017-11-23T04:36:37.637Z,44.60
2017-11-23T04:37:39.024Z,44.50
2017-11-23T04:38:40.764Z,44.40
2017-11-23T04:39:42.065Z,44.10
2017-11-23T04:40:43.372Z,44.70
2017-11-23T04:41:44.706Z,45.10
2017-11-23T04:42:46.048Z,44.70
2017-11-23T04:43:47.639Z,44.40
2017-11-23T04:44:48.954Z,44.40
2017-11-23T04:45:50.252Z,43.70
2017-11-23T04:46:51.560Z,43.90
2017-11-23T04:47:52.860Z,43.30
2017-11-23T04:48:55.192Z,43.10
2017-11-23T04:49:56.486Z,42.50
2017-11-23T04:50:57.781Z,42.30
2017-11-23T04:51:59.097Z,42.50
2017-11-23T04:53:00.430Z,42.60
2017-11-23T04:54:01.790Z,42.90
2017-11-23T04:55:03.070Z,42.70
2017-11-23T04:56:04.371Z,42.80
2017-11-23T04:57:06.417Z,43.30
2017-11-23T04:58:07.719Z,42.60
2017-11-23T04:59:09.296Z,43.00
2017-11-23T05:00:10.653Z,43.30
2017-11-23T05:01:13.745Z,43.30
2017-11-23T05:02:16.225Z,43.20
2017-11-23T05:03:17.552Z,43.30
2017-11-23T05:04:19.112Z,43.60
2017-11-23T05:05:20.420Z,43.70
2017-11-23T05:06:23.481Z,43.60
2017-11-23T05:07:24.772Z,43.50
2017-11-23T05:08:26.068Z,43.40
2017-11-23T05:09:28.405Z,44.20
2017-11-23T05:10:29.740Z,44.20
2017-11-23T05:11:31.058Z,44.50
2017-11-23T05:12:32.384Z,43.80
2017-11-23T05:13:33.683Z,43.70
2017-11-23T05:14:35.756Z,43.90
2017-11-23T05:15:37.089Z,43.80
2017-11-23T05:16:39.122Z,43.30
2017-11-23T05:17:40.430Z,43.20
2017-11-23T05:18:41.742Z,44.20
2017-11-23T05:19:43.345Z,44.10
2017-11-23T05:20:44.666Z,43.10
2017-11-23T05:21:45.966Z,42.90
2017-11-23T05:22:47.252Z,42.60
2017-11-23T05:23:48.524Z,42.90
2017-11-23T05:24:49.874Z,43.10
2017-11-23T05:25:51.172Z,43.20
2017-11-23T05:26:53.212Z,43.50
2017-11-23T05:27:54.505Z,43.40
2017-11-23T05:28:55.815Z,43.30
2017-11-23T05:29:57.892Z,44.00
2017-11-23T05:30:59.188Z,43.90
2017-11-23T05:32:00.501Z,43.50
2017-11-23T05:33:01.792Z,44.10
2017-11-23T05:34:03.087Z,43.70
2017-11-23T05:35:04.434Z,43.50
2017-11-23T05:36:05.735Z,43.90
2017-11-23T05:37:07.037Z,43.80
2017-11-23T05:38:08.334Z,43.80
2017-11-23T05:39:09.658Z,43.30
2017-11-23T05:40:11.279Z,43.40
2017-11-23T05:41:12.569Z,43.00
2017-11-23T05:42:13.857Z,42.80
2017-11-23T05:43:15.154Z,42.60
2017-11-23T05:44:17.180Z,43.30
2017-11-23T05:45:18.737Z,43.30
2017-11-23T05:46:20.032Z,43.50
2017-11-23T05:47:21.322Z,43.60
2017-11-23T05:48:23.367Z,43.80
2017-11-23T05:49:24.664Z,43.60
2017-11-23T05:50:26.313Z,44.00
2017-11-23T05:51:27.604Z,43.30
2017-11-23T05:52:29.644Z,43.10
2017-11-23T05:53:30.944Z,43.10
2017-11-23T05:54:32.266Z,42.80
2017-11-23T05:55:33.923Z,42.70
2017-11-23T05:56:35.226Z,42.50
2017-11-23T05:57:37.286Z,43.30
2017-11-23T05:58:38.605Z,42.60
2017-11-23T05:59:40.685Z,42.70
2017-11-23T06:00:42.028Z,42.60
2017-11-23T06:01:43.323Z,42.40
2017-11-23T06:02:44.626Z,43.00
2017-11-23T06:03:45.957Z,42.20
2017-11-23T06:04:47.237Z,42.00
2017-11-23T06:05:48.934Z,42.20
2017-11-23T06:06:50.238Z,42.30
2017-11-23T06:07:52.297Z,42.10
2017-11-23T06:08:54.361Z,42.00
2017-11-23T06:09:56.382Z,41.70
2017-11-23T06:10:57.747Z,41.70
2017-11-23T06:11:59.812Z,42.00
2017-11-23T06:13:01.110Z,41.90
2017-11-23T06:14:02.417Z,41.80
2017-11-23T06:15:03.718Z,41.70
2017-11-23T06:16:06.133Z,41.50
2017-11-23T06:17:07.443Z,41.40
2017-11-23T06:18:08.769Z,41.30
2017-11-23T06:19:10.057Z,41.50
2017-11-23T06:20:11.340Z,41.90
2017-11-23T06:21:12.702Z,42.10
2017-11-23T06:22:13.990Z,41.80
2017-11-23T06:23:15.289Z,41.90
2017-11-23T06:24:16.595Z,42.10
2017-11-23T06:25:17.899Z,42.30
2017-11-23T06:26:19.491Z,42.30
2017-11-23T06:27:20.805Z,42.00
2017-11-23T06:28:22.105Z,41.60
2017-11-23T06:29:23.421Z,41.50
2017-11-23T06:30:24.721Z,41.60
2017-11-23T06:31:26.041Z,41.40
2017-11-23T06:32:28.084Z,42.40
2017-11-23T06:33:29.402Z,42.40
2017-11-23T06:34:31.440Z,42.30
2017-11-23T06:35:32.730Z,42.30
2017-11-23T06:36:35.337Z,42.90
2017-11-23T06:37:36.640Z,42.90
2017-11-23T06:38:38.668Z,43.20
2017-11-23T06:39:39.962Z,43.20
2017-11-23T06:40:41.266Z,43.10
2017-11-23T06:41:43.874Z,43.10
2017-11-23T06:42:45.171Z,43.10
2017-11-23T06:43:47.222Z,43.50
2017-11-23T06:44:49.257Z,43.80
2017-11-23T06:45:50.546Z,43.70
2017-11-23T06:46:52.156Z,43.80
2017-11-23T06:47:54.185Z,44.40
2017-11-23T06:48:55.489Z,44.40
2017-11-23T06:49:56.777Z,44.70
2017-11-23T06:50:58.834Z,44.20
2017-11-23T06:52:00.538Z,44.20
2017-11-23T06:53:01.855Z,44.00
2017-11-23T06:54:03.162Z,43.60
2017-11-23T06:55:05.209Z,44.00
2017-11-23T06:56:06.495Z,43.90
2017-11-23T06:57:08.345Z,43.90
2017-11-23T06:58:09.631Z,44.00
2017-11-23T06:59:10.926Z,44.90
2017-11-23T07:00:12.212Z,45.30
2017-11-23T07:01:13.496Z,45.00
2017-11-23T07:02:14.845Z,44.60
2017-11-23T07:03:16.157Z,44.60
2017-11-23T07:04:17.457Z,44.80
2017-11-23T07:05:18.770Z,44.80
2017-11-23T07:06:20.077Z,44.80
2017-11-23T07:07:21.741Z,45.10
2017-11-23T07:08:23.046Z,45.30
2017-11-23T07:09:24.333Z,44.80
2017-11-23T07:10:25.663Z,44.70
2017-11-23T07:11:26.997Z,44.40
2017-11-23T07:12:29.757Z,44.70
2017-11-23T07:13:31.056Z,44.70
2017-11-23T07:14:33.096Z,44.40
2017-11-23T07:15:34.422Z,44.30
2017-11-23T07:16:35.735Z,44.80
2017-11-23T07:17:43.407Z,45.10
2017-11-23T07:18:44.726Z,44.80
2017-11-23T07:19:46.017Z,44.60
2017-11-23T07:20:47.300Z,45.10
2017-11-23T07:21:48.600Z,45.00
2017-11-23T07:22:49.962Z,45.00
2017-11-23T07:23:52.006Z,45.50
2017-11-23T07:24:54.045Z,44.70
2017-11-23T07:25:55.338Z,44.60
2017-11-23T07:26:56.640Z,44.30
2017-11-23T07:27:58.692Z,44.30
2017-11-23T07:29:00.721Z,44.80
2017-11-23T07:30:02.025Z,44.60
2017-11-23T07:31:03.325Z,44.50
2017-11-23T07:32:05.371Z,44.00
2017-11-23T07:33:07.992Z,43.50
2017-11-23T07:34:09.298Z,43.40
2017-11-23T07:35:10.610Z,42.40
2017-11-23T07:36:11.975Z,41.40
2017-11-23T07:37:14.008Z,40.50
2017-11-23T07:38:15.353Z,40.40
2017-11-23T07:39:17.398Z,39.50
2017-11-23T07:40:18.704Z,39.40
2017-11-23T07:41:20.023Z,40.10
2017-11-23T07:42:21.329Z,38.90
2017-11-23T07:43:23.721Z,38.90
2017-11-23T07:44:25.022Z,38.90
2017-11-23T07:45:27.063Z,38.20
2017-11-23T07:46:28.362Z,38.10
2017-11-23T07:47:29.645Z,37.90
2017-11-23T07:48:32.185Z,36.60
2017-11-23T07:49:34.238Z,35.90
2017-11-23T07:50:35.548Z,35.80
2017-11-23T07:51:36.865Z,35.90
2017-11-23T07:52:38.179Z,35.60
2017-11-23T07:53:39.870Z,34.50
2017-11-23T07:54:41.181Z,35.40
2017-11-23T07:55:43.221Z,33.40
2017-11-23T07:56:45.290Z,32.70
2017-11-23T07:57:47.323Z,32.20
2017-11-23T07:58:48.660Z,32.10
2017-11-23T07:59:49.957Z,32.40
2017-11-23T08:00:51.254Z,32.60
2017-11-23T08:01:53.297Z,32.60
2017-11-23T08:02:55.326Z,33.60
2017-11-23T08:03:56.677Z,32.90
2017-11-23T08:04:58.001Z,32.90
2017-11-23T08:05:59.308Z,33.00
2017-11-23T08:07:00.637Z,33.10
2017-11-23T08:08:01.967Z,33.10
2017-11-23T08:09:03.742Z,32.70
2017-11-23T08:10:05.046Z,32.50
2017-11-23T08:11:06.377Z,32.30
2017-11-23T08:12:08.435Z,32.10
2017-11-23T08:13:10.473Z,31.80
2017-11-23T08:14:12.089Z,31.60
2017-11-23T08:15:13.433Z,31.90
2017-11-23T08:16:14.840Z,31.70
2017-11-23T08:17:16.195Z,31.10
2017-11-23T08:18:17.517Z,31.00
2017-11-23T08:19:18.869Z,30.10
2017-11-23T08:20:20.171Z,30.30
2017-11-23T08:21:21.484Z,30.00
2017-11-23T08:22:22.803Z,30.00
2017-11-23T08:23:24.109Z,29.90
2017-11-23T08:24:25.761Z,29.70
2017-11-23T08:25:27.061Z,29.80
2017-11-23T08:26:29.097Z,29.50
2017-11-23T08:27:30.403Z,29.50
2017-11-23T08:28:31.708Z,29.60
2017-11-23T08:29:33.370Z,29.30
2017-11-23T08:30:34.679Z,29.40
2017-11-23T08:31:35.989Z,29.40
2017-11-23T08:32:37.302Z,29.70
2017-11-23T08:33:38.606Z,29.20
2017-11-23T08:34:40.277Z,29.70
2017-11-23T08:35:41.590Z,29.70
2017-11-23T08:36:42.877Z,29.80
2017-11-23T08:37:44.178Z,29.90
2017-11-23T08:38:45.464Z,29.70
2017-11-23T08:39:46.789Z,29.00
2017-11-23T08:40:48.098Z,28.80
2017-11-23T08:41:49.421Z,28.40
2017-11-23T08:42:50.749Z,27.10
2017-11-23T08:43:52.080Z,26.70
2017-11-23T08:44:53.421Z,26.80
2017-11-23T08:45:54.709Z,26.70
2017-11-23T08:46:56.013Z,26.70
2017-11-23T08:47:57.292Z,26.60
2017-11-23T08:48:58.603Z,26.40
2017-11-23T08:49:59.970Z,26.30
2017-11-23T08:51:01.288Z,26.10
2017-11-23T08:52:03.377Z,24.70
2017-11-23T08:53:04.678Z,24.70
2017-11-23T08:54:06.038Z,25.30
2017-11-23T08:55:07.633Z,25.80
2017-11-23T08:56:08.927Z,26.20
2017-11-23T08:57:10.220Z,26.00
2017-11-23T08:58:11.546Z,26.30
2017-11-23T08:59:12.867Z,25.70
2017-11-23T09:00:14.958Z,25.00
2017-11-23T09:01:18.213Z,24.80
2017-11-23T09:02:19.557Z,24.90
2017-11-23T09:03:20.863Z,24.80
2017-11-23T09:04:22.910Z,25.50
2017-11-23T09:05:29.483Z,25.00
2017-11-23T09:06:31.568Z,25.10
2017-11-23T09:07:32.871Z,25.00
2017-11-23T09:08:34.245Z,25.30
2017-11-23T09:09:35.568Z,25.20
2017-11-23T09:10:37.969Z,26.20
2017-11-23T09:11:39.277Z,26.10
2017-11-23T09:12:43.550Z,25.60
2017-11-23T09:13:44.863Z,24.50
2017-11-23T09:14:46.209Z,25.50
2017-11-23T09:15:47.595Z,25.70
2017-11-23T09:16:48.942Z,25.70
2017-11-23T09:17:50.252Z,25.60
2017-11-23T09:18:52.304Z,26.20
2017-11-23T09:19:54.341Z,25.90
2017-11-23T09:20:55.925Z,25.90
2017-11-23T09:21:57.230Z,25.90
2017-11-23T09:22:58.527Z,25.60
2017-11-23T09:24:00.596Z,25.90
2017-11-23T09:25:01.906Z,25.90
2017-11-23T09:26:03.289Z,26.20
2017-11-23T09:27:04.609Z,26.50
2017-11-23T09:28:06.674Z,26.90
2017-11-23T09:29:07.986Z,26.90
2017-11-23T09:30:09.405Z,27.00
2017-11-23T09:31:10.786Z,27.30
2017-11-23T09:32:12.114Z,27.30
2017-11-23T09:33:13.454Z,27.70
2017-11-23T09:34:14.785Z,27.80
2017-11-23T09:35:16.121Z,27.90
2017-11-23T09:36:17.500Z,27.70
2017-11-23T09:37:18.819Z,27.90
2017-11-23T09:38:20.137Z,28.50
2017-11-23T09:39:21.464Z,28.20
2017-11-23T09:40:22.776Z,28.40
2017-11-23T09:41:25.116Z,28.50
2017-11-23T09:42:26.448Z,28.50
2017-11-23T09:43:27.778Z,27.90
2017-11-23T09:44:29.090Z,28.20
2017-11-23T09:45:30.392Z,28.50
2017-11-23T09:46:32.753Z,28.90
2017-11-23T09:47:34.789Z,28.70
2017-11-23T09:48:36.110Z,28.70
2017-11-23T09:49:37.450Z,29.00
2017-11-23T09:50:38.788Z,29.20
2017-11-23T09:51:40.504Z,29.40
2017-11-23T09:52:41.817Z,29.00
2017-11-23T09:53:43.132Z,29.10
2017-11-23T09:54:44.470Z,29.40
2017-11-23T09:55:46.535Z,29.30
2017-11-23T09:56:47.941Z,28.70
2017-11-23T09:57:49.270Z,28.70
2017-11-23T09:58:50.584Z,29.10
2017-11-23T09:59:51.927Z,29.50
2017-11-23T10:00:53.240Z,29.70
2017-11-23T10:01:54.853Z,29.90
2017-11-23T10:02:56.174Z,30.00
2017-11-23T10:03:57.484Z,30.10
2017-11-23T10:04:58.784Z,30.10
2017-11-23T10:06:00.830Z,30.10
2017-11-23T10:07:02.183Z,30.20
2017-11-23T10:08:04.215Z,31.60
2017-11-23T10:09:05.609Z,31.60
2017-11-23T10:10:06.925Z,30.90
2017-11-23T10:11:08.225Z,31.30
2017-11-23T10:12:09.830Z,31.20
2017-11-23T10:13:11.169Z,31.20
2017-11-23T10:14:18.403Z,31.20
2017-11-23T10:15:20.449Z,31.30
2017-11-23T10:16:21.743Z,31.20
2017-11-23T10:17:23.100Z,31.10
2017-11-23T10:18:24.411Z,30.70
2017-11-23T10:19:25.741Z,30.50
2017-11-23T10:20:27.041Z,30.30
2017-11-23T10:21:29.080Z,31.20
2017-11-23T10:22:30.693Z,30.70
2017-11-23T10:23:32.001Z,31.20
2017-11-23T10:24:33.449Z,31.20
2017-11-23T10:25:34.758Z,31.20
2017-11-23T10:26:36.811Z,31.50
2017-11-23T10:27:39.232Z,30.50
2017-11-23T10:28:40.539Z,30.40
2017-11-23T10:29:41.846Z,30.30
2017-11-23T10:30:43.166Z,30.80
2017-11-23T10:31:44.465Z,30.60
2017-11-23T10:32:46.130Z,31.00
2017-11-23T10:33:47.457Z,31.00
2017-11-23T10:34:48.744Z,31.20
2017-11-23T10:35:50.052Z,30.10
2017-11-23T10:36:51.353Z,30.80
2017-11-23T10:37:52.885Z,31.10
2017-11-23T10:38:54.178Z,30.90
2017-11-23T10:39:55.480Z,30.00
2017-11-23T10:40:56.782Z,29.50
2017-11-23T10:41:58.842Z,29.70
2017-11-23T10:43:00.950Z,30.00
2017-11-23T10:44:02.272Z,30.00
2017-11-23T10:45:03.563Z,30.20
2017-11-23T10:46:05.633Z,30.10
2017-11-23T10:47:07.669Z,29.40
2017-11-23T10:48:09.317Z,29.30
2017-11-23T10:49:10.650Z,29.60
2017-11-23T10:50:11.965Z,30.40
2017-11-23T10:51:13.277Z,31.00
2017-11-23T10:52:14.606Z,31.00
2017-11-23T10:53:16.468Z,30.50
2017-11-23T10:54:17.797Z,30.30
2017-11-23T10:55:19.100Z,29.70
2017-11-23T10:56:21.132Z,29.50
2017-11-23T10:57:22.432Z,29.40
2017-11-23T10:58:24.056Z,29.90
2017-11-23T10:59:25.365Z,29.90
2017-11-23T11:00:26.676Z,30.00
2017-11-23T11:01:28.002Z,30.40
2017-11-23T11:02:29.315Z,29.30
2017-11-23T11:03:30.692Z,29.40
2017-11-23T11:04:32.042Z,29.70
2017-11-23T11:05:33.367Z,29.60
2017-11-23T11:06:34.700Z,28.50
2017-11-23T11:07:36.741Z,29.30
2017-11-23T11:08:38.401Z,29.20
2017-11-23T11:09:39.730Z,29.30
2017-11-23T11:10:41.023Z,29.40
2017-11-23T11:11:43.069Z,30.20
2017-11-23T11:12:44.368Z,30.20
2017-11-23T11:13:45.998Z,30.10
2017-11-23T11:14:47.292Z,30.70
2017-11-23T11:15:49.342Z,29.30
2017-11-23T11:16:50.645Z,29.20
2017-11-23T11:17:51.954Z,29.50
2017-11-23T11:18:53.563Z,29.90
2017-11-23T11:19:54.862Z,29.70
2017-11-23T11:20:56.192Z,29.60
2017-11-23T11:21:57.496Z,30.00
2017-11-23T11:22:58.801Z,29.50
2017-11-23T11:24:00.382Z,29.20
2017-11-23T11:25:01.679Z,29.10
2017-11-23T11:26:02.977Z,29.60
2017-11-23T11:27:04.313Z,29.70
2017-11-23T11:28:05.614Z,29.60
2017-11-23T11:29:07.700Z,29.40
2017-11-23T11:30:09.042Z,29.40
2017-11-23T11:31:10.344Z,29.30
2017-11-23T11:32:12.589Z,29.30
2017-11-23T11:33:13.925Z,29.10
2017-11-23T11:34:15.279Z,29.20
2017-11-23T11:35:17.342Z,29.50
2017-11-23T11:36:19.402Z,29.10
2017-11-23T11:37:21.458Z,29.10
2017-11-23T11:38:23.498Z,28.80
2017-11-23T11:39:25.859Z,29.00
2017-11-23T11:40:27.920Z,29.70
2017-11-23T11:41:29.983Z,29.50
2017-11-23T11:42:32.030Z,29.20
2017-11-23T11:43:34.114Z,29.50
2017-11-23T11:44:35.469Z,29.50
2017-11-23T11:45:36.769Z,29.90
2017-11-23T11:46:38.811Z,30.00
2017-11-23T11:47:40.856Z,29.80
2017-11-23T11:48:42.181Z,29.80
2017-11-23T11:49:43.898Z,30.00
2017-11-23T11:50:45.213Z,31.00
2017-11-23T11:51:46.514Z,30.40
2017-11-23T11:52:47.832Z,30.40
2017-11-23T11:53:49.154Z,30.00
2017-11-23T11:54:50.495Z,30.30
2017-11-23T11:55:51.799Z,30.00
2017-11-23T11:56:53.114Z,29.80
2017-11-23T11:57:54.420Z,29.50
2017-11-23T11:58:55.725Z,29.60
2017-11-23T11:59:57.309Z,29.90
2017-11-23T12:00:58.613Z,29.90
2017-11-23T12:01:59.906Z,30.10
2017-11-23T12:03:01.210Z,30.10
2017-11-23T12:04:02.572Z,29.80
2017-11-23T12:05:04.122Z,30.10
2017-11-23T12:06:05.425Z,29.80
2017-11-23T12:07:06.708Z,30.00
2017-11-23T12:08:08.760Z,29.80
2017-11-23T12:09:10.810Z,30.30
2017-11-23T12:10:12.520Z,29.80
2017-11-23T12:11:13.821Z,30.00
2017-11-23T12:12:15.121Z,29.70
2017-11-23T12:13:16.441Z,30.00
2017-11-23T12:14:25.760Z,30.00
2017-11-23T12:15:33.134Z,29.60
2017-11-23T12:16:46.802Z,30.00
2017-11-23T12:18:10.797Z,30.10
2017-11-23T12:19:16.134Z,29.80
2017-11-23T12:20:17.465Z,29.50
2017-11-23T12:21:24.881Z,29.50
2017-11-23T12:22:48.326Z,29.60
2017-11-23T12:23:49.684Z,29.10
2017-11-23T12:25:02.095Z,29.20
2017-11-23T12:26:03.429Z,29.10
2017-11-23T12:27:05.533Z,29.10
2017-11-23T12:29:51.296Z,28.70
2017-11-23T12:30:52.605Z,28.50
2017-11-23T12:31:53.928Z,28.70
2017-11-23T12:32:55.513Z,28.50
2017-11-23T12:33:56.813Z,28.20
2017-11-23T12:34:58.133Z,28.00
2017-11-23T12:35:59.453Z,28.00
2017-11-23T12:37:00.759Z,28.20
2017-11-23T12:38:02.469Z,28.40
2017-11-23T12:39:03.853Z,28.40
2017-11-23T12:40:05.166Z,29.80
2017-11-23T12:41:06.458Z,30.10
2017-11-23T12:42:07.768Z,32.00
2017-11-23T12:43:09.367Z,32.00
2017-11-23T12:44:10.664Z,33.20
2017-11-23T12:45:11.994Z,33.00
2017-11-23T12:46:14.033Z,33.30
2017-11-23T12:47:15.350Z,33.10
2017-11-23T12:48:16.970Z,32.90
2017-11-23T12:49:18.269Z,33.00
2017-11-23T12:50:20.295Z,33.80
2017-11-23T12:51:21.624Z,33.70
2017-11-23T12:52:22.920Z,33.30
2017-11-23T12:53:24.585Z,33.10
2017-11-23T12:54:25.921Z,33.60
2017-11-23T12:55:27.232Z,33.30
2017-11-23T12:56:29.286Z,33.10
2017-11-23T12:57:31.310Z,33.50
2017-11-23T12:58:32.922Z,33.40
2017-11-23T12:59:34.236Z,32.90
2017-11-23T13:00:35.542Z,33.30
2017-11-23T13:01:36.845Z,32.90
2017-11-23T13:02:38.162Z,34.10
2017-11-23T13:03:39.889Z,33.10
2017-11-23T13:04:41.927Z,35.10
2017-11-23T13:05:43.975Z,34.90
2017-11-23T13:06:46.046Z,35.20
2017-11-23T13:07:48.104Z,35.50
2017-11-23T13:08:50.453Z,35.70
2017-11-23T13:09:51.755Z,35.70
2017-11-23T13:10:53.825Z,35.60
2017-11-23T13:11:55.123Z,35.60
2017-11-23T13:12:56.431Z,35.60
2017-11-23T13:13:58.510Z,35.70
2017-11-23T13:14:59.822Z,35.60
2017-11-23T13:16:01.873Z,34.40
2017-11-23T13:17:03.904Z,34.60